sensor_id;sensor_type;location;lat;lon;timestamp;pressure;altitude;pressure_sealevel;temperature;humidity
29379;BME280;16362;47.202;15.258;2024-02-28T00:02:29;96001.59;;;6.04;100.00
29379;BME280;16362;47.202;15.258;2024-02-28T00:04:57;96006.72;;;6.05;100.00
29379;BME280;16362;47.202;15.258;2024-02-28T00:07:35;95996.44;;;6.02;100.00
29379;BME280;16362;47.202;15.258;2024-02-28T00:10:02;95996.19;;;5.96;100.00
29379;BME280;16362;47.202;15.258;2024-02-28T00:12:31;96005.94;;;5.95;100.00
29379;BME280;16362;47.202;15.258;2024-02-28T00:15:00;95995.81;;;5.90;100.00
29379;BME280;16362;47.202;15.258;2024-02-28T00:17:32;96001.09;;;5.90;100.00
29379;BME280;16362;47.202;15.258;2024-02-28T00:20:06;96013.38;;;5.92;100.00
29379;BME280;16362;47.202;15.258;2024-02-28T00:22:35;96017.16;;;5.89;100.00
29379;BME280;16362;47.202;15.258;2024-02-28T00:25:07;95998.78;;;5.87;100.00
29379;BME280;16362;47.202;15.258;2024-02-28T00:27:39;96001.09;;;5.90;100.00
29379;BME280;16362;47.202;15.258;2024-02-28T00:30:06;96001.94;;;5.91;100.00
29379;BME280;16362;47.202;15.258;2024-02-28T00:32:37;96005.28;;;5.93;100.00
29379;BME280;16362;47.202;15.258;2024-02-28T00:35:04;96009.06;;;5.90;100.00
29379;BME280;16362;47.202;15.258;2024-02-28T00:37:31;96016.03;;;5.92;100.00
29379;BME280;16362;47.202;15.258;2024-02-28T00:40:08;95999.59;;;5.88;100.00
29379;BME280;16362;47.202;15.258;2024-02-28T00:42:36;96012.53;;;5.91;100.00
29379;BME280;16362;47.202;15.258;2024-02-28T00:45:03;96012.69;;;5.89;100.00
29379;BME280;16362;47.202;15.258;2024-02-28T00:47:30;96025.25;;;5.87;100.00
29379;BME280;16362;47.202;15.258;2024-02-28T00:49:58;96031.59;;;5.95;100.00
29379;BME280;16362;47.202;15.258;2024-02-28T00:52:32;96020.63;;;5.89;100.00
29379;BME280;16362;47.202;15.258;2024-02-28T00:55:06;96020.78;;;5.88;100.00
29379;BME280;16362;47.202;15.258;2024-02-28T00:57:35;96026.38;;;5.85;100.00
29379;BME280;16362;47.202;15.258;2024-02-28T01:00:02;96030.00;;;5.84;100.00
29379;BME280;16362;47.202;15.258;2024-02-28T01:02:29;96025.84;;;5.81;100.00
29379;BME280;16362;47.202;15.258;2024-02-28T01:04:56;96020.69;;;5.80;100.00
29379;BME280;16362;47.202;15.258;2024-02-28T01:07:23;96026.00;;;5.80;100.00
29379;BME280;16362;47.202;15.258;2024-02-28T01:09:49;96032.72;;;5.74;100.00
29379;BME280;16362;47.202;15.258;2024-02-28T01:12:16;96033.41;;;5.76;100.00
29379;BME280;16362;47.202;15.258;2024-02-28T01:14:44;96040.53;;;5.76;100.00
29379;BME280;16362;47.202;15.258;2024-02-28T01:17:11;96037.41;;;5.80;100.00
29379;BME280;16362;47.202;15.258;2024-02-28T01:19:38;96047.84;;;5.82;100.00
29379;BME280;16362;47.202;15.258;2024-02-28T01:22:04;96034.69;;;5.72;100.00
29379;BME280;16362;47.202;15.258;2024-02-28T01:24:31;96041.97;;;5.70;100.00
29379;BME280;16362;47.202;15.258;2024-02-28T01:27:00;96042.13;;;5.68;100.00
29379;BME280;16362;47.202;15.258;2024-02-28T01:29:27;96040.94;;;5.71;100.00
29379;BME280;16362;47.202;15.258;2024-02-28T01:31:54;96040.94;;;5.71;100.00
29379;BME280;16362;47.202;15.258;2024-02-28T01:34:21;96048.53;;;5.66;100.00
29379;BME280;16362;47.202;15.258;2024-02-28T01:36:51;96048.53;;;5.66;100.00
29379;BME280;16362;47.202;15.258;2024-02-28T01:39:19;96048.22;;;5.69;100.00
29379;BME280;16362;47.202;15.258;2024-02-28T01:41:59;96052.69;;;5.68;100.00
29379;BME280;16362;47.202;15.258;2024-02-28T01:44:36;96057.16;;;5.68;100.00
29379;BME280;16362;47.202;15.258;2024-02-28T01:47:19;96049.13;;;5.60;100.00
29379;BME280;16362;47.202;15.258;2024-02-28T01:49:58;96042.31;;;5.57;100.00
29379;BME280;16362;47.202;15.258;2024-02-28T01:52:29;96048.88;;;5.53;100.00
29379;BME280;16362;47.202;15.258;2024-02-28T01:55:03;96044.72;;;5.50;100.00
29379;BME280;16362;47.202;15.258;2024-02-28T01:57:42;96048.06;;;5.52;100.00
29379;BME280;16362;47.202;15.258;2024-02-28T02:00:21;96039.56;;;5.49;100.00
29379;BME280;16362;47.202;15.258;2024-02-28T02:02:50;96048.63;;;5.46;100.00
29379;BME280;16362;47.202;15.258;2024-02-28T02:05:20;96048.63;;;5.46;100.00
29379;BME280;16362;47.202;15.258;2024-02-28T02:07:49;96045.84;;;5.48;100.00
29379;BME280;16362;47.202;15.258;2024-02-28T02:10:18;96043.66;;;5.43;100.00
29379;BME280;16362;47.202;15.258;2024-02-28T02:12:49;96043.50;;;5.45;100.00
29379;BME280;16362;47.202;15.258;2024-02-28T02:15:18;96041.66;;;5.45;100.00
29379;BME280;16362;47.202;15.258;2024-02-28T02:17:45;96050.47;;;5.46;100.00
29379;BME280;16362;47.202;15.258;2024-02-28T02:20:22;96049.91;;;5.42;100.00
29379;BME280;16362;47.202;15.258;2024-02-28T02:22:53;96050.06;;;5.40;100.00
29379;BME280;16362;47.202;15.258;2024-02-28T02:25:27;96056.47;;;5.38;100.00
29379;BME280;16362;47.202;15.258;2024-02-28T02:27:59;96052.16;;;5.37;100.00
29379;BME280;16362;47.202;15.258;2024-02-28T02:30:38;96049.25;;;5.40;100.00
29379;BME280;16362;47.202;15.258;2024-02-28T02:33:06;96050.88;;;5.41;100.00
29379;BME280;16362;47.202;15.258;2024-02-28T02:35:38;96045.91;;;5.38;100.00
29379;BME280;16362;47.202;15.258;2024-02-28T02:38:10;96047.56;;;5.39;100.00
29379;BME280;16362;47.202;15.258;2024-02-28T02:40:37;96042.84;;;5.33;100.00
29379;BME280;16362;47.202;15.258;2024-02-28T02:43:04;96043.00;;;5.31;100.00
29379;BME280;16362;47.202;15.258;2024-02-28T02:45:31;96041.22;;;5.32;100.00
29379;BME280;16362;47.202;15.258;2024-02-28T02:47:58;96032.56;;;5.30;100.00
29379;BME280;16362;47.202;15.258;2024-02-28T02:50:25;96036.44;;;5.35;100.00
29379;BME280;16362;47.202;15.258;2024-02-28T02:52:51;96036.44;;;5.35;100.00
29379;BME280;16362;47.202;15.258;2024-02-28T02:55:18;96040.59;;;5.38;100.00
29379;BME280;16362;47.202;15.258;2024-02-28T02:57:45;96028.94;;;5.31;100.00
29379;BME280;16362;47.202;15.258;2024-02-28T03:00:13;96023.97;;;5.28;100.00
29379;BME280;16362;47.202;15.258;2024-02-28T03:02:40;96024.47;;;5.31;100.00
29379;BME280;16362;47.202;15.258;2024-02-28T03:05:07;96029.38;;;5.26;100.00
29379;BME280;16362;47.202;15.258;2024-02-28T03:07:34;96034.56;;;5.18;100.00
29379;BME280;16362;47.202;15.258;2024-02-28T03:10:01;96027.63;;;5.17;100.00
29379;BME280;16362;47.202;15.258;2024-02-28T03:12:29;96043.63;;;5.15;100.00
29379;BME280;16362;47.202;15.258;2024-02-28T03:14:56;96041.00;;;5.15;100.00
29379;BME280;16362;47.202;15.258;2024-02-28T03:17:24;96046.59;;;5.12;100.00
29379;BME280;16362;47.202;15.258;2024-02-28T03:19:55;96046.28;;;5.15;100.00
29379;BME280;16362;47.202;15.258;2024-02-28T03:22:29;96049.38;;;5.11;100.00
29379;BME280;16362;47.202;15.258;2024-02-28T03:24:56;96051.31;;;5.09;100.00
29379;BME280;16362;47.202;15.258;2024-02-28T03:27:23;96048.16;;;5.05;100.00
29379;BME280;16362;47.202;15.258;2024-02-28T03:29:53;96057.22;;;5.02;100.00
29379;BME280;16362;47.202;15.258;2024-02-28T03:32:27;96054.72;;;5.01;100.00
29379;BME280;16362;47.202;15.258;2024-02-28T03:34:54;96059.69;;;5.04;100.00
29379;BME280;16362;47.202;15.258;2024-02-28T03:37:28;96056.34;;;5.02;100.00
29379;BME280;16362;47.202;15.258;2024-02-28T03:39:57;96060.56;;;4.95;100.00
29379;BME280;16362;47.202;15.258;2024-02-28T03:42:26;96061.84;;;4.91;100.00
29379;BME280;16362;47.202;15.258;2024-02-28T03:44:55;96062.84;;;4.80;100.00
29379;BME280;16362;47.202;15.258;2024-02-28T03:47:25;96062.03;;;4.79;100.00
29379;BME280;16362;47.202;15.258;2024-02-28T03:49:53;96063.53;;;4.82;100.00
29379;BME280;16362;47.202;15.258;2024-02-28T03:52:29;96067.97;;;4.81;100.00
29379;BME280;16362;47.202;15.258;2024-02-28T03:55:02;96067.44;;;4.78;100.00
29379;BME280;16362;47.202;15.258;2024-02-28T03:57:30;96063.13;;;4.77;100.00
29379;BME280;16362;47.202;15.258;2024-02-28T04:00:02;96059.78;;;4.75;100.00
29379;BME280;16362;47.202;15.258;2024-02-28T04:02:35;96046.31;;;4.68;100.00
29379;BME280;16362;47.202;15.258;2024-02-28T04:05:02;96057.59;;;4.70;100.00
29379;BME280;16362;47.202;15.258;2024-02-28T04:07:39;96054.38;;;4.66;100.00
29379;BME280;16362;47.202;15.258;2024-02-28T04:10:11;96060.78;;;4.64;100.00
29379;BME280;16362;47.202;15.258;2024-02-28T04:12:43;96059.97;;;4.63;100.00
29379;BME280;16362;47.202;15.258;2024-02-28T04:15:12;96044.25;;;4.62;100.00
29379;BME280;16362;47.202;15.258;2024-02-28T04:17:46;96046.34;;;4.58;100.00
29379;BME280;16362;47.202;15.258;2024-02-28T04:20:13;96054.25;;;4.58;100.00
29379;BME280;16362;47.202;15.258;2024-02-28T04:22:45;96043.13;;;4.54;100.00
29379;BME280;16362;47.202;15.258;2024-02-28T04:25:12;96038.69;;;4.55;100.00
29379;BME280;16362;47.202;15.258;2024-02-28T04:27:39;96050.53;;;4.51;100.00
29379;BME280;16362;47.202;15.258;2024-02-28T04:30:06;96046.22;;;4.50;100.00
29379;BME280;16362;47.202;15.258;2024-02-28T04:32:33;96043.72;;;4.48;100.00
29379;BME280;16362;47.202;15.258;2024-02-28T04:35:02;96037.59;;;4.48;100.00
29379;BME280;16362;47.202;15.258;2024-02-28T04:37:29;96036.19;;;4.44;100.00
29379;BME280;16362;47.202;15.258;2024-02-28T04:39:56;96041.47;;;4.44;100.00
29379;BME280;16362;47.202;15.258;2024-02-28T04:42:23;96047.34;;;4.47;100.00
29379;BME280;16362;47.202;15.258;2024-02-28T04:44:50;96054.44;;;4.47;100.00
29379;BME280;16362;47.202;15.258;2024-02-28T04:47:17;96057.22;;;4.45;100.00
29379;BME280;16362;47.202;15.258;2024-02-28T04:49:51;96063.06;;;4.39;100.00
29379;BME280;16362;47.202;15.258;2024-02-28T04:52:18;96057.34;;;4.34;100.00
29379;BME280;16362;47.202;15.258;2024-02-28T04:54:48;96059.31;;;4.32;100.00
29379;BME280;16362;47.202;15.258;2024-02-28T04:57:15;96065.44;;;4.32;100.00
29379;BME280;16362;47.202;15.258;2024-02-28T04:59:44;96065.44;;;4.32;100.00
29379;BME280;16362;47.202;15.258;2024-02-28T05:02:13;96068.22;;;4.31;100.00
29379;BME280;16362;47.202;15.258;2024-02-28T05:04:40;96074.63;;;4.28;100.00
29379;BME280;16362;47.202;15.258;2024-02-28T05:07:19;96079.75;;;4.20;100.00
29379;BME280;16362;47.202;15.258;2024-02-28T05:09:48;96083.81;;;4.14;100.00
29379;BME280;16362;47.202;15.258;2024-02-28T05:12:19;96077.38;;;4.07;100.00
29379;BME280;16362;47.202;15.258;2024-02-28T05:14:59;96083.25;;;4.01;100.00
29379;BME280;16362;47.202;15.258;2024-02-28T05:17:27;96087.56;;;4.02;100.00
29379;BME280;16362;47.202;15.258;2024-02-28T05:20:05;96085.16;;;3.99;100.00
29379;BME280;16362;47.202;15.258;2024-02-28T05:22:34;96097.13;;;4.03;100.00
29379;BME280;16362;47.202;15.258;2024-02-28T05:25:17;96100.03;;;4.00;100.00
29379;BME280;16362;47.202;15.258;2024-02-28T05:27:57;96091.16;;;4.01;100.00
29379;BME280;16362;47.202;15.258;2024-02-28T05:30:28;96085.03;;;4.00;100.00
29379;BME280;16362;47.202;15.258;2024-02-28T05:32:59;96077.09;;;4.00;100.00
29379;BME280;16362;47.202;15.258;2024-02-28T05:35:36;96072.38;;;4.04;100.00
29379;BME280;16362;47.202;15.258;2024-02-28T05:38:03;96064.19;;;3.97;100.00
29379;BME280;16362;47.202;15.258;2024-02-28T05:40:32;96074.47;;;4.00;100.00
29379;BME280;16362;47.202;15.258;2024-02-28T05:43:03;96084.34;;;4.08;100.00
29379;BME280;16362;47.202;15.258;2024-02-28T05:45:30;96081.13;;;4.04;100.00
29379;BME280;16362;47.202;15.258;2024-02-28T05:47:57;96090.88;;;4.04;100.00
29379;BME280;16362;47.202;15.258;2024-02-28T05:50:25;96095.34;;;4.03;100.00
29379;BME280;16362;47.202;15.258;2024-02-28T05:52:53;96091.16;;;4.01;100.00
29379;BME280;16362;47.202;15.258;2024-02-28T05:55:19;96095.47;;;4.02;100.00
29379;BME280;16362;47.202;15.258;2024-02-28T05:57:56;96100.47;;;4.15;100.00
29379;BME280;16362;47.202;15.258;2024-02-28T06:00:29;96100.34;;;4.07;100.00
29379;BME280;16362;47.202;15.258;2024-02-28T06:03:02;96106.84;;;4.12;100.00
29379;BME280;16362;47.202;15.258;2024-02-28T06:05:29;96112.72;;;4.16;100.00
29379;BME280;16362;47.202;15.258;2024-02-28T06:07:56;96113.53;;;4.16;100.00
29379;BME280;16362;47.202;15.258;2024-02-28T06:10:23;96118.28;;;4.22;100.00
29379;BME280;16362;47.202;15.258;2024-02-28T06:12:50;96120.91;;;4.22;100.00
29379;BME280;16362;47.202;15.258;2024-02-28T06:15:17;96115.78;;;4.21;100.00
29379;BME280;16362;47.202;15.258;2024-02-28T06:17:45;96100.06;;;4.19;100.00
29379;BME280;16362;47.202;15.258;2024-02-28T06:20:12;96110.19;;;4.34;100.00
29379;BME280;16362;47.202;15.258;2024-02-28T06:22:38;96116.75;;;4.30;100.00
29379;BME280;16362;47.202;15.258;2024-02-28T06:25:06;96124.09;;;4.26;100.00
29379;BME280;16362;47.202;15.258;2024-02-28T06:27:39;96124.94;;;4.27;100.00
29379;BME280;16362;47.202;15.258;2024-02-28T06:30:07;96128.56;;;4.26;100.00
29379;BME280;16362;47.202;15.258;2024-02-28T06:32:33;96132.88;;;4.36;100.00
29379;BME280;16362;47.202;15.258;2024-02-28T06:35:01;96133.84;;;4.35;100.00
29379;BME280;16362;47.202;15.258;2024-02-28T06:37:27;96140.78;;;4.36;100.00
29379;BME280;16362;47.202;15.258;2024-02-28T06:39:55;96149.53;;;4.37;100.00
29379;BME280;16362;47.202;15.258;2024-02-28T06:42:27;96148.03;;;4.44;100.00
29379;BME280;16362;47.202;15.258;2024-02-28T06:44:55;96159.84;;;4.50;100.00
29379;BME280;16362;47.202;15.258;2024-02-28T06:47:27;96165.28;;;4.58;100.00
29379;BME280;16362;47.202;15.258;2024-02-28T06:50:00;96159.59;;;4.63;100.00
29379;BME280;16362;47.202;15.258;2024-02-28T06:52:32;96173.19;;;4.68;100.00
29379;BME280;16362;47.202;15.258;2024-02-28T06:55:06;96179.31;;;4.78;100.00
29379;BME280;16362;47.202;15.258;2024-02-28T06:57:40;96186.97;;;4.81;100.00
29379;BME280;16362;47.202;15.258;2024-02-28T07:00:10;96189.19;;;4.86;100.00
29379;BME280;16362;47.202;15.258;2024-02-28T07:02:54;96182.66;;;4.90;100.00
29379;BME280;16362;47.202;15.258;2024-02-28T07:05:30;96195.56;;;5.03;100.00
29379;BME280;16362;47.202;15.258;2024-02-28T07:08:00;96202.09;;;5.18;100.00
29379;BME280;16362;47.202;15.258;2024-02-28T07:10:33;96193.97;;;5.30;100.00
29379;BME280;16362;47.202;15.258;2024-02-28T07:13:00;96202.03;;;5.38;100.00
29379;BME280;16362;47.202;15.258;2024-02-28T07:15:29;96198.38;;;5.49;100.00
29379;BME280;16362;47.202;15.258;2024-02-28T07:18:05;96193.59;;;5.62;100.00
29379;BME280;16362;47.202;15.258;2024-02-28T07:20:38;96201.06;;;5.77;100.00
29379;BME280;16362;47.202;15.258;2024-02-28T07:23:06;96196.13;;;5.92;100.00
29379;BME280;16362;47.202;15.258;2024-02-28T07:25:35;96197.03;;;6.10;100.00
29379;BME280;16362;47.202;15.258;2024-02-28T07:28:08;96196.44;;;6.34;100.00
29379;BME280;16362;47.202;15.258;2024-02-28T07:30:39;96209.75;;;6.52;100.00
29379;BME280;16362;47.202;15.258;2024-02-28T07:33:09;96196.25;;;6.64;100.00
29379;BME280;16362;47.202;15.258;2024-02-28T07:35:49;96200.09;;;6.69;100.00
29379;BME280;16362;47.202;15.258;2024-02-28T07:38:17;96195.34;;;6.73;100.00
29379;BME280;16362;47.202;15.258;2024-02-28T07:40:58;96191.94;;;6.81;100.00
29379;BME280;16362;47.202;15.258;2024-02-28T07:43:25;96188.66;;;6.87;100.00
29379;BME280;16362;47.202;15.258;2024-02-28T07:45:52;96185.09;;;6.96;100.00
29379;BME280;16362;47.202;15.258;2024-02-28T07:48:19;96180.31;;;7.00;100.00
29379;BME280;16362;47.202;15.258;2024-02-28T07:50:46;96187.66;;;7.06;100.00
29379;BME280;16362;47.202;15.258;2024-02-28T07:53:15;96176.81;;;7.17;100.00
29379;BME280;16362;47.202;15.258;2024-02-28T07:55:42;96177.44;;;7.37;100.00
29379;BME280;16362;47.202;15.258;2024-02-28T07:58:09;96180.84;;;7.56;100.00
29379;BME280;16362;47.202;15.258;2024-02-28T08:00:36;96173.09;;;7.71;100.00
29379;BME280;16362;47.202;15.258;2024-02-28T08:03:03;96174.22;;;7.95;100.00
29379;BME280;16362;47.202;15.258;2024-02-28T08:05:31;96176.31;;;8.25;100.00
29379;BME280;16362;47.202;15.258;2024-02-28T08:07:59;96166.09;;;8.55;100.00
29379;BME280;16362;47.202;15.258;2024-02-28T08:10:40;96169.28;;;8.84;100.00
29379;BME280;16362;47.202;15.258;2024-02-28T08:13:26;96179.59;;;8.95;100.00
29379;BME280;16362;47.202;15.258;2024-02-28T08:15:55;96167.59;;;8.99;100.00
29379;BME280;16362;47.202;15.258;2024-02-28T08:18:22;96171.44;;;9.05;100.00
29379;BME280;16362;47.202;15.258;2024-02-28T08:20:50;96166.78;;;9.15;100.00
29379;BME280;16362;47.202;15.258;2024-02-28T08:23:21;96166.25;;;9.28;100.00
29379;BME280;16362;47.202;15.258;2024-02-28T08:25:51;96160.59;;;9.31;100.00
29379;BME280;16362;47.202;15.258;2024-02-28T08:28:19;96161.75;;;9.37;100.00
29379;BME280;16362;47.202;15.258;2024-02-28T08:30:48;96171.41;;;9.38;100.00
29379;BME280;16362;47.202;15.258;2024-02-28T08:33:16;96162.91;;;9.42;100.00
29379;BME280;16362;47.202;15.258;2024-02-28T08:35:45;96170.25;;;9.24;100.00
29379;BME280;16362;47.202;15.258;2024-02-28T08:38:14;96164.25;;;9.30;100.00
29379;BME280;16362;47.202;15.258;2024-02-28T08:40:53;96167.75;;;9.31;100.00
29379;BME280;16362;47.202;15.258;2024-02-28T08:43:26;96165.06;;;9.47;100.00
29379;BME280;16362;47.202;15.258;2024-02-28T08:45:53;96170.19;;;9.57;100.00
29379;BME280;16362;47.202;15.258;2024-02-28T08:48:28;96171.63;;;9.84;100.00
29379;BME280;16362;47.202;15.258;2024-02-28T08:50:55;96180.97;;;9.80;100.00
29379;BME280;16362;47.202;15.258;2024-02-28T08:53:26;96188.28;;;9.78;100.00
29379;BME280;16362;47.202;15.258;2024-02-28T08:55:55;96197.31;;;9.69;100.00
29379;BME280;16362;47.202;15.258;2024-02-28T08:58:25;96198.47;;;9.74;100.00
29379;BME280;16362;47.202;15.258;2024-02-28T09:01:04;96201.28;;;9.81;100.00
29379;BME280;16362;47.202;15.258;2024-02-28T09:03:32;96207.59;;;9.80;100.00
29379;BME280;16362;47.202;15.258;2024-02-28T09:05:59;96205.94;;;9.79;100.00
29379;BME280;16362;47.202;15.258;2024-02-28T09:08:26;96214.56;;;9.98;100.00
29379;BME280;16362;47.202;15.258;2024-02-28T09:10:53;96215.88;;;10.02;100.00
29379;BME280;16362;47.202;15.258;2024-02-28T09:13:20;96217.03;;;9.99;100.00
29379;BME280;16362;47.202;15.258;2024-02-28T09:15:51;96215.44;;;10.21;100.00
29379;BME280;16362;47.202;15.258;2024-02-28T09:18:25;96208.34;;;10.14;100.00
29379;BME280;16362;47.202;15.258;2024-02-28T09:20:53;96212.34;;;10.09;100.00
29379;BME280;16362;47.202;15.258;2024-02-28T09:23:19;96205.16;;;10.10;100.00
29379;BME280;16362;47.202;15.258;2024-02-28T09:25:46;96205.50;;;10.15;100.00
29379;BME280;16362;47.202;15.258;2024-02-28T09:28:13;96208.47;;;10.20;100.00
29379;BME280;16362;47.202;15.258;2024-02-28T09:30:42;96205.09;;;10.35;100.00
29379;BME280;16362;47.202;15.258;2024-02-28T09:33:18;96208.69;;;10.50;100.00
29379;BME280;16362;47.202;15.258;2024-02-28T09:35:46;96212.78;;;10.61;100.00
29379;BME280;16362;47.202;15.258;2024-02-28T09:38:13;96216.19;;;10.78;100.00
29379;BME280;16362;47.202;15.258;2024-02-28T09:40:40;96211.50;;;10.80;100.00
29379;BME280;16362;47.202;15.258;2024-02-28T09:43:12;96226.97;;;10.85;100.00
29379;BME280;16362;47.202;15.258;2024-02-28T09:45:42;96217.94;;;10.63;100.00
29379;BME280;16362;47.202;15.258;2024-02-28T09:48:12;96217.00;;;10.55;100.00
29379;BME280;16362;47.202;15.258;2024-02-28T09:50:42;96218.19;;;10.53;100.00
29379;BME280;16362;47.202;15.258;2024-02-28T09:53:24;96218.63;;;10.56;100.00
29379;BME280;16362;47.202;15.258;2024-02-28T09:55:53;96219.63;;;10.64;100.00
29379;BME280;16362;47.202;15.258;2024-02-28T09:58:22;96217.84;;;10.79;100.00
29379;BME280;16362;47.202;15.258;2024-02-28T10:00:58;96217.03;;;11.02;100.00
29379;BME280;16362;47.202;15.258;2024-02-28T10:03:36;96221.22;;;11.19;100.00
29379;BME280;16362;47.202;15.258;2024-02-28T10:06:10;96225.84;;;11.25;100.00
29379;BME280;16362;47.202;15.258;2024-02-28T10:08:38;96223.47;;;11.31;100.00
29379;BME280;16362;47.202;15.258;2024-02-28T10:11:11;96229.31;;;11.49;100.00
29379;BME280;16362;47.202;15.258;2024-02-28T10:13:52;96224.38;;;11.61;100.00
29379;BME280;16362;47.202;15.258;2024-02-28T10:16:19;96234.22;;;11.60;100.00
29379;BME280;16362;47.202;15.258;2024-02-28T10:18:46;96231.16;;;11.49;100.00
29379;BME280;16362;47.202;15.258;2024-02-28T10:21:14;96237.75;;;11.38;100.00
29379;BME280;16362;47.202;15.258;2024-02-28T10:23:46;96242.53;;;11.66;100.00
29379;BME280;16362;47.202;15.258;2024-02-28T10:26:15;96229.00;;;11.82;100.00
29379;BME280;16362;47.202;15.258;2024-02-28T10:28:45;96228.63;;;11.85;100.00
29379;BME280;16362;47.202;15.258;2024-02-28T10:31:17;96229.09;;;11.89;100.00
29379;BME280;16362;47.202;15.258;2024-02-28T10:33:45;96222.19;;;11.94;100.00
29379;BME280;16362;47.202;15.258;2024-02-28T10:36:12;96220.53;;;11.93;100.00
29379;BME280;16362;47.202;15.258;2024-02-28T10:38:40;96224.59;;;11.89;100.00
29379;BME280;16362;47.202;15.258;2024-02-28T10:41:12;96216.69;;;12.11;100.00
29379;BME280;16362;47.202;15.258;2024-02-28T10:43:43;96218.13;;;12.28;100.00
29379;BME280;16362;47.202;15.258;2024-02-28T10:46:13;96219.34;;;12.26;100.00
29379;BME280;16362;47.202;15.258;2024-02-28T10:49:04;96215.19;;;12.38;100.00
29379;BME280;16362;47.202;15.258;2024-02-28T10:51:34;96211.00;;;12.51;100.00
29379;BME280;16362;47.202;15.258;2024-02-28T10:54:12;96211.47;;;12.54;100.00
29379;BME280;16362;47.202;15.258;2024-02-28T10:56:47;96205.25;;;12.54;100.00
29379;BME280;16362;47.202;15.258;2024-02-28T10:59:17;96207.31;;;12.52;100.00
29379;BME280;16362;47.202;15.258;2024-02-28T11:01:44;96209.91;;;12.45;100.00
29379;BME280;16362;47.202;15.258;2024-02-28T11:04:13;96201.13;;;12.51;100.00
29379;BME280;16362;47.202;15.258;2024-02-28T11:06:54;96200.06;;;12.67;100.00
29379;BME280;16362;47.202;15.258;2024-02-28T11:09:25;96198.78;;;12.63;100.00
29379;BME280;16362;47.202;15.258;2024-02-28T11:11:54;96203.56;;;12.68;100.00
29379;BME280;16362;47.202;15.258;2024-02-28T11:14:26;96203.47;;;12.76;100.00
29379;BME280;16362;47.202;15.258;2024-02-28T11:17:01;96202.31;;;12.85;100.00
29379;BME280;16362;47.202;15.258;2024-02-28T11:19:29;96202.22;;;12.78;100.00
29379;BME280;16362;47.202;15.258;2024-02-28T11:22:00;96207.84;;;12.84;100.00
29379;BME280;16362;47.202;15.258;2024-02-28T11:24:29;96203.72;;;12.81;100.00
29379;BME280;16362;47.202;15.258;2024-02-28T11:26:57;96204.34;;;12.83;100.00
29379;BME280;16362;47.202;15.258;2024-02-28T11:29:39;96209.97;;;12.88;100.00
29379;BME280;16362;47.202;15.258;2024-02-28T11:32:16;96202.56;;;12.90;100.00
29379;BME280;16362;47.202;15.258;2024-02-28T11:34:45;96211.69;;;12.96;100.00
29379;BME280;16362;47.202;15.258;2024-02-28T11:37:20;96205.25;;;12.90;100.00
29379;BME280;16362;47.202;15.258;2024-02-28T11:39:59;96205.78;;;13.01;100.00
29379;BME280;16362;47.202;15.258;2024-02-28T11:42:26;96200.16;;;13.17;100.00
29379;BME280;16362;47.202;15.258;2024-02-28T11:45:00;96199.81;;;13.27;100.00
29379;BME280;16362;47.202;15.258;2024-02-28T11:47:32;96189.16;;;13.34;92.51
29379;BME280;16362;47.202;15.258;2024-02-28T11:50:04;96194.91;;;13.30;90.66
29379;BME280;16362;47.202;15.258;2024-02-28T11:52:37;96195.25;;;13.21;91.95
29379;BME280;16362;47.202;15.258;2024-02-28T11:55:07;96188.69;;;13.30;90.88
29379;BME280;16362;47.202;15.258;2024-02-28T11:57:42;96198.13;;;13.19;90.57
29379;BME280;16362;47.202;15.258;2024-02-28T12:00:18;96184.59;;;13.27;88.91
29379;BME280;16362;47.202;15.258;2024-02-28T12:02:52;96192.63;;;13.49;89.07
29379;BME280;16362;47.202;15.258;2024-02-28T12:05:30;96197.47;;;13.39;90.65
29379;BME280;16362;47.202;15.258;2024-02-28T12:08:01;96190.25;;;13.39;91.44
29379;BME280;16362;47.202;15.258;2024-02-28T12:10:34;96194.16;;;13.37;90.78
29379;BME280;16362;47.202;15.258;2024-02-28T12:13:07;96186.09;;;13.37;90.97
29379;BME280;16362;47.202;15.258;2024-02-28T12:15:40;96184.91;;;13.39;88.67
29379;BME280;16362;47.202;15.258;2024-02-28T12:18:15;96186.75;;;13.39;89.41
29379;BME280;16362;47.202;15.258;2024-02-28T12:20:43;96179.34;;;13.41;88.85
29379;BME280;16362;47.202;15.258;2024-02-28T12:23:13;96176.22;;;13.66;85.85
29379;BME280;16362;47.202;15.258;2024-02-28T12:25:43;96184.53;;;13.42;90.29
29379;BME280;16362;47.202;15.258;2024-02-28T12:28:10;96176.03;;;13.39;89.07
29379;BME280;16362;47.202;15.258;2024-02-28T12:30:42;96184.34;;;13.44;88.28
29379;BME280;16362;47.202;15.258;2024-02-28T12:33:10;96182.00;;;13.41;90.29
29379;BME280;16362;47.202;15.258;2024-02-28T12:35:40;96179.22;;;13.27;89.97
29379;BME280;16362;47.202;15.258;2024-02-28T12:38:08;96176.78;;;13.32;89.24
29379;BME280;16362;47.202;15.258;2024-02-28T12:40:36;96171.34;;;13.47;87.75
29379;BME280;16362;47.202;15.258;2024-02-28T12:43:03;96175.91;;;13.25;89.28
29379;BME280;16362;47.202;15.258;2024-02-28T12:45:30;96171.81;;;13.29;88.41
29379;BME280;16362;47.202;15.258;2024-02-28T12:47:58;96180.03;;;13.28;91.85
29379;BME280;16362;47.202;15.258;2024-02-28T12:50:25;96171.81;;;13.29;90.58
29379;BME280;16362;47.202;15.258;2024-02-28T12:52:51;96174.22;;;13.24;91.00
29379;BME280;16362;47.202;15.258;2024-02-28T12:55:20;96176.69;;;13.19;91.88
29379;BME280;16362;47.202;15.258;2024-02-28T12:57:50;96172.09;;;13.13;92.49
29379;BME280;16362;47.202;15.258;2024-02-28T13:00:17;96169.16;;;13.08;95.30
29379;BME280;16362;47.202;15.258;2024-02-28T13:02:46;96167.19;;;13.17;91.77
29379;BME280;16362;47.202;15.258;2024-02-28T13:05:13;96173.09;;;13.12;93.37